Time;durP1;ratioP1;P1;durP2;ratioP2;P2;SDS_P1;SDS_P2;PMS_P1;PMS_P2;Temp;Humidity;BMP_temperature;BMP_pressure;BME280_temperature;BME280_humidity;BME280_pressure;Samples;Min_cycle;Max_cycle;Signal;HPM_P1;HPM_P2
2022/06/03 00:02:18;;;;;;;8.33;4.97;;;;;;;;;;5077269;28;20329;-74
2022/06/03 00:05:03;;;;;;;5.20;4.40;;;;;;;;;;5113529;28;20348;-73
2022/06/03 00:07:30;;;;;;;6.43;5.00;;;;;;;;;;5112662;28;20208;-72
2022/06/03 00:10:06;;;;;;;7.47;5.30;;;;;;;;;;5111947;28;20189;-72
2022/06/03 00:12:39;;;;;;;8.10;4.73;;;;;;;;;;5109407;28;20192;-73
2022/06/03 00:15:13;;;;;;;8.17;5.00;;;;;;;;;;5112049;28;20270;-73
2022/06/03 00:17:40;;;;;;;9.03;5.43;;;;;;;;;;5108812;28;20294;-72
2022/06/03 00:20:07;;;;;;;7.13;5.63;;;;;;;;;;5111717;28;20637;-72
2022/06/03 00:22:44;;;;;;;7.20;5.03;;;;;;;;;;5109246;28;20221;-72
2022/06/03 00:25:29;;;;;;;7.33;5.57;;;;;;;;;;5109748;28;20205;-73
2022/06/03 00:28:06;;;;;;;7.27;5.13;;;;;;;;;;5111575;28;20635;-73
2022/06/03 00:30:45;;;;;;;9.80;5.60;;;;;;;;;;5109948;28;20189;-73
2022/06/03 00:33:15;;;;;;;7.13;5.50;;;;;;;;;;5111475;28;20789;-73
2022/06/03 00:35:41;;;;;;;5.80;4.90;;;;;;;;;;5109009;28;20701;-73
2022/06/03 00:38:08;;;;;;;7.13;5.23;;;;;;;;;;5110839;28;20199;-73
2022/06/03 00:40:40;;;;;;;8.40;5.27;;;;;;;;;;5111051;28;20189;-72
2022/06/03 00:43:07;;;;;;;8.70;5.20;;;;;;;;;;5109500;28;20248;-71
2022/06/03 00:45:43;;;;;;;7.50;6.00;;;;;;;;;;5111332;28;20554;-71
2022/06/03 00:48:22;;;;;;;7.37;5.30;;;;;;;;;;5109393;28;20275;-71
2022/06/03 00:50:49;;;;;;;6.93;5.10;;;;;;;;;;5110939;28;20691;-72
2022/06/03 00:53:35;;;;;;;10.03;5.80;;;;;;;;;;5108047;28;20246;-71
2022/06/03 00:56:04;;;;;;;8.57;4.97;;;;;;;;;;5109378;28;20274;-72
2022/06/03 00:58:31;;;;;;;7.43;5.27;;;;;;;;;;5110851;28;20669;-72
2022/06/03 01:01:15;;;;;;;8.47;5.33;;;;;;;;;;5109159;28;20287;-72
2022/06/03 01:03:45;;;;;;;8.47;5.30;;;;;;;;;;5110613;28;20217;-72
2022/06/03 01:06:18;;;;;;;9.53;5.67;;;;;;;;;;5110394;28;20208;-72
2022/06/03 01:08:48;;;;;;;7.07;4.87;;;;;;;;;;5109423;28;20744;-72
2022/06/03 01:11:21;;;;;;;8.53;5.40;;;;;;;;;;5109222;28;20615;-72
2022/06/03 01:14:04;;;;;;;6.93;6.20;;;;;;;;;;5109589;28;20663;-72
2022/06/03 01:16:49;;;;;;;9.40;5.77;;;;;;;;;;5109155;28;20191;-72
2022/06/03 01:19:36;;;;;;;7.47;6.13;;;;;;;;;;5110830;28;20209;-72
2022/06/03 01:22:09;;;;;;;8.83;5.70;;;;;;;;;;5108719;28;20777;-72
2022/06/03 01:24:51;;;;;;;8.37;6.30;;;;;;;;;;5110164;28;20217;-72
2022/06/03 01:27:19;;;;;;;8.87;6.50;;;;;;;;;;5107749;28;20666;-73
2022/06/03 01:30:04;;;;;;;8.63;5.67;;;;;;;;;;5109853;28;20262;-73
2022/06/03 01:32:47;;;;;;;10.57;6.50;;;;;;;;;;5108778;28;20621;-73
2022/06/03 01:35:21;;;;;;;10.43;6.43;;;;;;;;;;5108460;28;20192;-72
2022/06/03 01:38:07;;;;;;;7.77;6.50;;;;;;;;;;5108825;28;20280;-73
2022/06/03 01:40:39;;;;;;;9.57;7.97;;;;;;;;;;5109406;28;20203;-73
2022/06/03 01:43:22;;;;;;;11.30;6.53;;;;;;;;;;5108939;28;20192;-73
2022/06/03 01:45:54;;;;;;;8.30;6.80;;;;;;;;;;5110162;28;20690;-71
2022/06/03 01:48:33;;;;;;;9.53;6.93;;;;;;;;;;5108571;28;20192;-71
2022/06/03 01:51:18;;;;;;;7.87;6.40;;;;;;;;;;5109870;28;20272;-71
2022/06/03 01:54:04;;;;;;;8.63;6.30;;;;;;;;;;5107928;28;20253;-71
2022/06/03 01:56:44;;;;;;;11.20;7.40;;;;;;;;;;5107944;28;20223;-70
2022/06/03 01:59:11;;;;;;;10.47;6.47;;;;;;;;;;5109664;28;20297;-71
2022/06/03 02:01:37;;;;;;;11.87;7.30;;;;;;;;;;5108191;28;20279;-71
2022/06/03 02:04:17;;;;;;;8.97;6.63;;;;;;;;;;5109161;28;20207;-71
2022/06/03 02:06:53;;;;;;;7.63;6.80;;;;;;;;;;5109400;28;20283;-72
2022/06/03 02:09:20;;;;;;;10.07;7.17;;;;;;;;;;5107810;28;20194;-72
2022/06/03 02:11:47;;;;;;;10.97;6.50;;;;;;;;;;5109416;28;20194;-72
2022/06/03 02:14:29;;;;;;;8.63;6.77;;;;;;;;;;5107826;28;20245;-71
2022/06/03 02:17:11;;;;;;;10.60;6.93;;;;;;;;;;5109343;28;20191;-71
2022/06/03 02:19:38;;;;;;;8.63;6.00;;;;;;;;;;5109170;28;20226;-73
2022/06/03 02:22:23;;;;;;;8.40;7.10;;;;;;;;;;5107744;28;20234;-72
2022/06/03 02:24:59;;;;;;;10.63;6.97;;;;;;;;;;5109397;28;20239;-72
2022/06/03 02:27:26;;;;;;;8.47;6.50;;;;;;;;;;5107892;28;20278;-72
2022/06/03 02:32:42;;;;;;;8.63;6.90;;;;;;;;;;5109050;27;20197;-72
2022/06/03 02:35:28;;;;;;;12.60;6.93;;;;;;;;;;5107561;28;20189;-72
2022/06/03 02:38:05;;;;;;;13.37;7.33;;;;;;;;;;5109004;28;20198;-72
2022/06/03 02:40:33;;;;;;;11.40;6.47;;;;;;;;;;5107434;28;20194;-72
2022/06/03 02:43:19;;;;;;;11.13;7.37;;;;;;;;;;5107258;28;20639;-72
2022/06/03 02:45:49;;;;;;;10.77;6.67;;;;;;;;;;5107708;28;20244;-72
2022/06/03 02:48:36;;;;;;;9.23;6.77;;;;;;;;;;5107061;28;20687;-72
2022/06/03 02:51:11;;;;;;;13.47;8.37;;;;;;;;;;5087127;28;20295;-72
2022/06/03 02:53:57;;;;;;;28.73;19.73;;;;;;;;;;5107433;28;20633;-72
2022/06/03 02:56:43;;;;;;;16.93;10.23;;;;;;;;;;5107653;28;20185;-71
2022/06/03 02:59:24;;;;;;;12.27;7.83;;;;;;;;;;5108472;28;20274;-72
2022/06/03 03:02:06;;;;;;;10.93;7.80;;;;;;;;;;5107031;28;20190;-72
2022/06/03 03:04:52;;;;;;;14.70;7.60;;;;;;;;;;5108370;28;20223;-72
2022/06/03 03:07:28;;;;;;;8.43;7.27;;;;;;;;;;5108326;28;20241;-74
2022/06/03 03:10:10;;;;;;;10.37;7.37;;;;;;;;;;5105194;28;20234;-74
2022/06/03 03:12:37;;;;;;;16.27;8.17;;;;;;;;;;5108276;28;20215;-73
2022/06/03 03:15:04;;;;;;;10.97;7.50;;;;;;;;;;5105104;28;20197;-73
2022/06/03 03:17:31;;;;;;;12.37;7.83;;;;;;;;;;5106653;28;20192;-73
2022/06/03 03:20:27;;;;;;;9.27;7.00;;;;;;;;;;5107894;28;20699;-73
2022/06/03 03:22:57;;;;;;;11.47;7.03;;;;;;;;;;5097421;28;20810;-74
2022/06/03 03:25:33;;;;;;;10.90;7.73;;;;;;;;;;5108279;28;20269;-72
2022/06/03 03:28:20;;;;;;;9.87;7.57;;;;;;;;;;5106620;28;20207;-73
2022/06/03 03:30:56;;;;;;;12.23;6.63;;;;;;;;;;5107267;28;20188;-73
2022/06/03 03:33:26;;;;;;;10.80;6.93;;;;;;;;;;5108369;28;20624;-73
2022/06/03 03:35:56;;;;;;;10.13;6.07;;;;;;;;;;5104875;28;20638;-74
2022/06/03 03:38:41;;;;;;;10.40;7.30;;;;;;;;;;5107798;28;20637;-73
2022/06/03 03:41:37;;;;;;;9.90;6.77;;;;;;;;;;5088669;28;20196;-73
2022/06/03 03:44:13;;;;;;;9.07;7.13;;;;;;;;;;5052046;28;20236;-72
2022/06/03 03:46:55;;;;;;;8.90;6.30;;;;;;;;;;5107960;28;20272;-73
2022/06/03 03:49:25;;;;;;;17.07;7.77;;;;;;;;;;5104970;28;20277;-73
2022/06/03 03:52:01;;;;;;;21.33;9.77;;;;;;;;;;5108082;28;20198;-74
2022/06/03 03:54:45;;;;;;;15.83;8.17;;;;;;;;;;5106188;28;20750;-74
2022/06/03 03:57:31;;;;;;;9.33;5.77;;;;;;;;;;5106328;28;20185;-74
2022/06/03 04:00:17;;;;;;;8.60;5.70;;;;;;;;;;5108095;28;20619;-74
2022/06/03 04:03:03;;;;;;;24.43;8.27;;;;;;;;;;5105495;28;20187;-73
2022/06/03 04:05:56;;;;;;;14.93;7.70;;;;;;;;;;5106926;28;20217;-74
2022/06/03 04:08:33;;;;;;;19.33;8.20;;;;;;;;;;5105832;28;20205;-72
2022/06/03 04:11:18;;;;;;;16.40;6.60;;;;;;;;;;5106052;28;20193;-73
2022/06/03 04:13:51;;;;;;;12.20;7.77;;;;;;;;;;5107279;28;20223;-71
2022/06/03 04:16:37;;;;;;;15.17;6.67;;;;;;;;;;5106618;28;20191;-72
2022/06/03 04:19:15;;;;;;;11.40;6.87;;;;;;;;;;5106145;28;20217;-72
2022/06/03 04:21:51;;;;;;;25.63;8.50;;;;;;;;;;5107436;28;20409;-72
2022/06/03 04:24:37;;;;;;;21.57;8.63;;;;;;;;;;5104808;28;20228;-74
2022/06/03 04:27:07;;;;;;;18.47;7.83;;;;;;;;;;5107907;28;20185;-73
2022/06/03 04:30:04;;;;;;;24.63;8.23;;;;;;;;;;5110615;28;20244;-72
2022/06/03 04:32:37;;;;;;;9.43;6.40;;;;;;;;;;5108474;27;20293;-73
2022/06/03 04:35:14;;;;;;;12.77;7.10;;;;;;;;;;5076572;28;20192;-74
2022/06/03 04:38:01;;;;;;;9.37;6.63;;;;;;;;;;5109055;28;20633;-73
2022/06/03 04:40:30;;;;;;;17.63;9.23;;;;;;;;;;5108176;28;20192;-73
2022/06/03 04:43:10;;;;;;;16.40;7.17;;;;;;;;;;5109788;28;20192;-73
2022/06/03 04:45:49;;;;;;;11.67;6.20;;;;;;;;;;5109559;27;20230;-73
2022/06/03 04:48:16;;;;;;;22.80;7.63;;;;;;;;;;5143638;27;20248;-77
2022/06/03 04:50:53;;;;;;;14.37;7.47;;;;;;;;;;5111171;28;20199;-74
2022/06/03 04:53:38;;;;;;;14.33;6.93;;;;;;;;;;5109547;28;20192;-74
2022/06/03 04:56:21;;;;;;;14.43;6.70;;;;;;;;;;5111066;28;20196;-74
2022/06/03 04:59:07;;;;;;;18.47;6.60;;;;;;;;;;5108257;28;20628;-74
2022/06/03 05:02:00;;;;;;;10.87;5.77;;;;;;;;;;5104435;28;20196;-74
2022/06/03 05:04:49;;;;;;;12.43;6.33;;;;;;;;;;5110594;28;20318;-73
2022/06/03 05:07:34;;;;;;;6.53;5.53;;;;;;;;;;5108977;28;20733;-72
2022/06/03 05:10:04;;;;;;;10.47;5.70;;;;;;;;;;5110144;28;20647;-73
2022/06/03 05:12:50;;;;;;;14.63;6.10;;;;;;;;;;5109000;28;20181;-72
2022/06/03 05:15:29;;;;;;;8.90;5.43;;;;;;;;;;5107611;28;20184;-74
2022/06/03 05:17:57;;;;;;;8.53;5.77;;;;;;;;;;5109049;28;20192;-74
2022/06/03 05:20:43;;;;;;;10.17;6.47;;;;;;;;;;5107831;28;20224;-76
2022/06/03 05:23:26;;;;;;;5.43;4.93;;;;;;;;;;5109657;28;20220;-72
2022/06/03 05:26:12;;;;;;;8.80;5.63;;;;;;;;;;5108731;28;20231;-73
2022/06/03 05:28:39;;;;;;;9.23;4.90;;;;;;;;;;5108829;28;20188;-74
2022/06/03 05:31:05;;;;;;;7.20;4.70;;;;;;;;;;5110455;28;20188;-74
2022/06/03 05:33:44;;;;;;;10.77;5.23;;;;;;;;;;5109211;27;20214;-73
2022/06/03 05:36:25;;;;;;;13.13;5.77;;;;;;;;;;5109066;28;20671;-74
2022/06/03 05:38:55;;;;;;;8.87;5.40;;;;;;;;;;5109314;28;20245;-73
2022/06/03 05:44:45;;;;;;;8.80;5.23;;;;;;;;;;5142273;27;20268;-73
2022/06/03 05:47:18;;;;;;;8.00;5.40;;;;;;;;;;5108417;28;20188;-73
2022/06/03 05:49:51;;;;;;;8.73;4.80;;;;;;;;;;5107973;28;20220;-72
2022/06/03 05:52:21;;;;;;;8.20;5.10;;;;;;;;;;5090876;28;20219;-72
2022/06/03 05:55:07;;;;;;;11.17;7.00;;;;;;;;;;5106531;28;20693;-74
2022/06/03 05:57:38;;;;;;;11.60;7.80;;;;;;;;;;5108415;27;20188;-73
2022/06/03 06:00:26;;;;;;;7.90;5.00;;;;;;;;;;5109291;28;20219;-73
2022/06/03 06:03:07;;;;;;;6.63;5.00;;;;;;;;;;5107373;28;20233;-74
2022/06/03 06:05:37;;;;;;;9.57;6.67;;;;;;;;;;5091092;28;20253;-73
2022/06/03 06:08:10;;;;;;;9.20;5.90;;;;;;;;;;5106670;28;20192;-72
2022/06/03 06:10:40;;;;;;;8.60;5.63;;;;;;;;;;5106840;28;20188;-75
2022/06/03 06:13:28;;;;;;;6.73;5.00;;;;;;;;;;5108957;28;20195;-76
2022/06/03 06:16:01;;;;;;;8.27;5.97;;;;;;;;;;5100194;28;20188;-72
2022/06/03 06:18:41;;;;;;;13.77;5.97;;;;;;;;;;5107586;28;20180;-72
2022/06/03 06:21:17;;;;;;;8.00;5.60;;;;;;;;;;5106602;28;20589;-72
2022/06/03 06:23:45;;;;;;;8.13;5.67;;;;;;;;;;5105713;28;20555;-74
2022/06/03 06:26:24;;;;;;;8.87;5.83;;;;;;;;;;5107525;28;20228;-72
2022/06/03 06:29:10;;;;;;;8.83;4.87;;;;;;;;;;5106651;28;20233;-72
2022/06/03 06:31:39;;;;;;;8.63;5.77;;;;;;;;;;5108590;28;20266;-73
2022/06/03 06:34:06;;;;;;;8.33;5.63;;;;;;;;;;5107305;28;20183;-73
2022/06/03 06:36:38;;;;;;;7.90;4.83;;;;;;;;;;5105673;28;20195;-74
2022/06/03 06:39:26;;;;;;;9.30;6.17;;;;;;;;;;5106502;28;20274;-73
2022/06/03 06:42:02;;;;;;;10.10;5.93;;;;;;;;;;5106583;28;20192;-73
2022/06/03 06:44:34;;;;;;;7.50;5.50;;;;;;;;;;5106831;28;20186;-74
2022/06/03 06:47:09;;;;;;;6.27;5.23;;;;;;;;;;5105863;28;20250;-72
2022/06/03 06:49:42;;;;;;;6.33;5.17;;;;;;;;;;5107502;28;20278;-73
2022/06/03 06:52:29;;;;;;;7.60;5.47;;;;;;;;;;5107369;28;20209;-72
2022/06/03 06:55:16;;;;;;;9.17;5.23;;;;;;;;;;5104651;28;20301;-73
2022/06/03 06:57:48;;;;;;;8.40;5.70;;;;;;;;;;5106256;28;20744;-74
2022/06/03 07:00:18;;;;;;;13.97;7.17;;;;;;;;;;5088903;28;20196;-75
2022/06/03 07:02:45;;;;;;;8.57;6.27;;;;;;;;;;5106220;28;20231;-73
2022/06/03 07:05:17;;;;;;;8.57;6.60;;;;;;;;;;5107542;28;20208;-73
2022/06/03 07:07:58;;;;;;;7.77;5.50;;;;;;;;;;5105155;28;20248;-73
2022/06/03 07:10:31;;;;;;;7.50;5.30;;;;;;;;;;5107408;28;20184;-75
2022/06/03 07:13:01;;;;;;;12.23;5.50;;;;;;;;;;5106957;28;20184;-73
2022/06/03 07:15:42;;;;;;;7.27;5.50;;;;;;;;;;5088662;28;20200;-72
2022/06/03 07:21:15;;;;;;;8.40;6.00;;;;;;;;;;5139430;27;20193;-74
2022/06/03 07:23:47;;;;;;;9.70;5.90;;;;;;;;;;5107676;28;20334;-74
2022/06/03 07:26:31;;;;;;;7.80;5.50;;;;;;;;;;5107981;28;20758;-74
2022/06/03 07:29:11;;;;;;;8.80;5.47;;;;;;;;;;5106226;27;20227;-74
2022/06/03 07:31:50;;;;;;;12.20;5.70;;;;;;;;;;5107699;28;20188;-72
2022/06/03 07:34:32;;;;;;;9.87;5.17;;;;;;;;;;5106014;28;20220;-72
2022/06/03 07:37:06;;;;;;;10.10;5.27;;;;;;;;;;5105372;28;20225;-73
2022/06/03 07:40:02;;;;;;;8.70;5.20;;;;;;;;;;5106253;28;20199;-72
2022/06/03 07:42:35;;;;;;;9.33;6.40;;;;;;;;;;5096894;28;20247;-74
2022/06/03 07:45:09;;;;;;;7.27;5.17;;;;;;;;;;5108003;28;20214;-73
2022/06/03 07:47:36;;;;;;;6.83;5.07;;;;;;;;;;5105785;28;20224;-73
2022/06/03 07:50:06;;;;;;;6.30;5.33;;;;;;;;;;5105593;28;20701;-74
2022/06/03 07:52:38;;;;;;;9.23;5.23;;;;;;;;;;5106601;28;20199;-73
2022/06/03 07:55:19;;;;;;;6.63;5.13;;;;;;;;;;5106536;28;20222;-73
2022/06/03 07:57:50;;;;;;;10.87;6.90;;;;;;;;;;5089881;28;20195;-73
2022/06/03 08:00:18;;;;;;;9.47;5.90;;;;;;;;;;5105948;28;20195;-74
2022/06/03 08:02:46;;;;;;;5.17;4.57;;;;;;;;;;5109623;28;20274;-72
2022/06/03 08:05:17;;;;;;;6.00;5.17;;;;;;;;;;5110092;28;20310;-72
2022/06/03 08:10:58;;;;;;;6.67;4.60;;;;;;;;;;5113488;28;20192;-73
2022/06/03 08:13:44;;;;;;;7.30;4.97;;;;;;;;;;5111054;28;20180;-74
2022/06/03 08:16:14;;;;;;;7.10;4.70;;;;;;;;;;5111047;28;20665;-73
2022/06/03 08:18:43;;;;;;;6.37;4.90;;;;;;;;;;5094465;28;20192;-74
2022/06/03 08:21:12;;;;;;;6.40;4.97;;;;;;;;;;5109930;28;20198;-72
2022/06/03 08:23:43;;;;;;;7.93;4.77;;;;;;;;;;5109565;28;20208;-73
2022/06/03 08:26:11;;;;;;;6.63;4.70;;;;;;;;;;5108796;28;20227;-74
2022/06/03 08:28:43;;;;;;;5.57;4.77;;;;;;;;;;5113212;28;20681;-73
2022/06/03 08:31:10;;;;;;;5.37;4.60;;;;;;;;;;5111937;28;20216;-74
2022/06/03 08:33:47;;;;;;;6.73;4.60;;;;;;;;;;5075337;28;20192;-72
2022/06/03 08:36:21;;;;;;;5.90;4.30;;;;;;;;;;5116354;28;20234;-72
2022/06/03 08:38:54;;;;;;;6.43;4.63;;;;;;;;;;5109680;28;20238;-73
2022/06/03 08:41:32;;;;;;;6.40;4.13;;;;;;;;;;5111425;28;20195;-76
2022/06/03 08:44:17;;;;;;;7.47;4.77;;;;;;;;;;5109553;28;20571;-71
2022/06/03 08:46:45;;;;;;;6.10;5.10;;;;;;;;;;5109239;28;20212;-74
2022/06/03 08:49:21;;;;;;;5.67;5.10;;;;;;;;;;5111200;28;20191;-73
2022/06/03 08:52:09;;;;;;;8.20;5.23;;;;;;;;;;5106974;28;20775;-75
2022/06/03 08:54:39;;;;;;;6.73;4.57;;;;;;;;;;5110735;28;20187;-74
2022/06/03 08:57:13;;;;;;;8.90;5.17;;;;;;;;;;5090986;28;20241;-74
2022/06/03 08:59:53;;;;;;;7.07;4.47;;;;;;;;;;5109116;28;20640;-75
2022/06/03 09:02:43;;;;;;;8.23;4.80;;;;;;;;;;5110821;28;20476;-75
2022/06/03 09:05:18;;;;;;;8.93;4.87;;;;;;;;;;5102201;28;20235;-73
2022/06/03 09:07:49;;;;;;;7.43;4.70;;;;;;;;;;5109719;28;20194;-75
2022/06/03 09:10:24;;;;;;;7.50;4.70;;;;;;;;;;5107805;28;20286;-76
2022/06/03 09:13:03;;;;;;;6.27;4.43;;;;;;;;;;5106682;28;20774;-75
2022/06/03 09:15:36;;;;;;;14.53;8.77;;;;;;;;;;5109278;28;20189;-77
2022/06/03 09:18:17;;;;;;;6.20;4.60;;;;;;;;;;5107788;28;20192;-76
2022/06/03 09:20:54;;;;;;;5.23;4.73;;;;;;;;;;5109621;28;20700;-74
2022/06/03 09:23:22;;;;;;;9.87;5.30;;;;;;;;;;5108161;28;20780;-73
2022/06/03 09:25:51;;;;;;;10.67;4.63;;;;;;;;;;5108609;28;20707;-74
2022/06/03 09:28:26;;;;;;;8.57;5.10;;;;;;;;;;5108313;28;20226;-73
2022/06/03 09:30:54;;;;;;;6.53;4.60;;;;;;;;;;5107926;28;20662;-74
2022/06/03 09:33:22;;;;;;;7.43;4.97;;;;;;;;;;5109416;27;20184;-73
2022/06/03 09:35:51;;;;;;;5.50;4.30;;;;;;;;;;5107687;28;20202;-74
2022/06/03 09:38:21;;;;;;;5.20;4.17;;;;;;;;;;5107552;28;20641;-74
2022/06/03 09:40:51;;;;;;;7.43;4.67;;;;;;;;;;5107692;28;20187;-74
2022/06/03 09:43:21;;;;;;;5.10;4.33;;;;;;;;;;5106099;28;20195;-72
2022/06/03 09:45:52;;;;;;;7.70;4.00;;;;;;;;;;5109016;28;20224;-74
2022/06/03 09:48:21;;;;;;;5.87;4.53;;;;;;;;;;5107154;28;20698;-73
2022/06/03 09:50:49;;;;;;;6.63;4.33;;;;;;;;;;5109096;28;20188;-74
2022/06/03 09:53:18;;;;;;;5.97;3.90;;;;;;;;;;5107390;28;20278;-76
2022/06/03 09:55:50;;;;;;;6.07;4.30;;;;;;;;;;5089482;28;20196;-76
2022/06/03 09:58:24;;;;;;;6.27;4.80;;;;;;;;;;5107226;28;20199;-74
2022/06/03 10:00:53;;;;;;;8.90;4.60;;;;;;;;;;5105408;28;20253;-73
2022/06/03 10:03:21;;;;;;;5.37;4.20;;;;;;;;;;5108574;28;20200;-73
2022/06/03 10:05:50;;;;;;;7.90;4.97;;;;;;;;;;5071361;28;20226;-75
2022/06/03 10:08:18;;;;;;;5.47;4.63;;;;;;;;;;5108590;28;20241;-73
2022/06/03 10:13:34;;;;;;;6.50;4.33;;;;;;;;;;5105646;28;20780;-73
2022/06/03 10:16:00;;;;;;;7.13;4.87;;;;;;;;;;5106634;28;20280;-73
2022/06/03 10:18:36;;;;;;;6.97;5.20;;;;;;;;;;5106609;28;20188;-74
2022/06/03 10:21:06;;;;;;;8.77;5.20;;;;;;;;;;5106478;28;20211;-74
2022/06/03 10:23:44;;;;;;;8.13;4.23;;;;;;;;;;5106779;28;20203;-74
2022/06/03 10:26:26;;;;;;;6.60;4.47;;;;;;;;;;5106169;28;20231;-76
2022/06/03 10:28:55;;;;;;;10.00;5.70;;;;;;;;;;5105921;28;20646;-75
2022/06/03 10:31:32;;;;;;;7.27;4.30;;;;;;;;;;5088184;28;20215;-73
2022/06/03 10:34:03;;;;;;;6.40;4.67;;;;;;;;;;5106794;28;20192;-74
2022/06/03 10:36:32;;;;;;;6.03;4.30;;;;;;;;;;5106018;28;20267;-74
2022/06/03 10:38:59;;;;;;;10.20;5.73;;;;;;;;;;5089292;28;20308;-74
2022/06/03 10:41:32;;;;;;;7.17;4.40;;;;;;;;;;5105885;28;20193;-73
2022/06/03 10:43:59;;;;;;;6.77;4.30;;;;;;;;;;5105934;28;20195;-72
2022/06/03 10:46:30;;;;;;;6.87;4.13;;;;;;;;;;5107893;28;20229;-72
2022/06/03 10:49:09;;;;;;;6.07;4.10;;;;;;;;;;5104929;28;20530;-74
2022/06/03 11:02:48;;;;;;;5.33;3.60;;;;;;;;;;5139182;27;20186;-75
2022/06/03 11:05:24;;;;;;;9.50;4.67;;;;;;;;;;5107564;28;20230;-75
2022/06/03 11:07:59;;;;;;;7.00;4.17;;;;;;;;;;5106037;28;20183;-74
2022/06/03 11:10:50;;;;;;;5.40;3.87;;;;;;;;;;5104803;28;20189;-74
2022/06/03 11:13:28;;;;;;;5.60;4.27;;;;;;;;;;5106352;28;20279;-74
2022/06/03 11:15:55;;;;;;;8.20;4.53;;;;;;;;;;5088196;28;20702;-75
2022/06/03 11:18:29;;;;;;;6.87;4.90;;;;;;;;;;5106894;28;20657;-74
2022/06/03 11:20:57;;;;;;;7.17;4.40;;;;;;;;;;5107232;28;20192;-75
2022/06/03 11:23:23;;;;;;;7.10;4.50;;;;;;;;;;5104626;28;20320;-73
2022/06/03 11:25:52;;;;;;;6.77;4.67;;;;;;;;;;5107168;28;20658;-73
2022/06/03 11:28:21;;;;;;;7.60;4.37;;;;;;;;;;5104403;28;20276;-73
2022/06/03 11:31:06;;;;;;;6.60;4.57;;;;;;;;;;5107038;28;20223;-75
2022/06/03 11:33:36;;;;;;;6.03;4.37;;;;;;;;;;5106641;28;20184;-74
2022/06/03 11:36:05;;;;;;;6.00;4.30;;;;;;;;;;5104448;28;20195;-75
2022/06/03 11:38:44;;;;;;;6.60;4.60;;;;;;;;;;5107341;28;20188;-75
2022/06/03 11:41:14;;;;;;;10.47;5.23;;;;;;;;;;5104221;28;20231;-74
2022/06/03 11:43:52;;;;;;;9.53;4.43;;;;;;;;;;5107136;28;20607;-72
2022/06/03 11:46:36;;;;;;;6.30;4.50;;;;;;;;;;5105414;28;20284;-73
2022/06/03 11:49:05;;;;;;;7.97;4.30;;;;;;;;;;5105743;28;20573;-74
2022/06/03 11:51:33;;;;;;;6.23;4.70;;;;;;;;;;5105840;28;20198;-73
2022/06/03 11:54:00;;;;;;;4.10;3.63;;;;;;;;;;5104485;28;20198;-75
2022/06/03 11:56:28;;;;;;;5.97;3.97;;;;;;;;;;5107153;28;20218;-75
2022/06/03 11:59:18;;;;;;;6.17;3.90;;;;;;;;;;5105480;28;20687;-74
2022/06/03 12:01:48;;;;;;;5.10;4.37;;;;;;;;;;5100402;28;20200;-73
2022/06/03 12:04:15;;;;;;;8.50;4.43;;;;;;;;;;5106753;28;20187;-74
2022/06/03 12:06:46;;;;;;;8.50;5.00;;;;;;;;;;5103743;28;20222;-76
2022/06/03 12:09:28;;;;;;;6.73;4.37;;;;;;;;;;5107268;28;20188;-73
2022/06/03 12:14:46;;;;;;;7.57;4.47;;;;;;;;;;5104624;28;20589;-74
2022/06/03 12:17:13;;;;;;;8.30;5.13;;;;;;;;;;5105740;28;20206;-75
2022/06/03 12:19:42;;;;;;;5.97;4.70;;;;;;;;;;5105657;28;20180;-74
2022/06/03 12:22:20;;;;;;;6.87;4.07;;;;;;;;;;5106911;28;20213;-74
2022/06/03 12:25:27;;;;;;;6.43;4.00;;;;;;;;;;5106160;28;20203;-76
2022/06/03 12:27:55;;;;;;;8.63;4.70;;;;;;;;;;5105683;28;20223;-74
2022/06/03 12:30:37;;;;;;;5.87;4.70;;;;;;;;;;5106890;28;20744;-74
2022/06/03 12:33:09;;;;;;;8.77;4.60;;;;;;;;;;5105626;28;20204;-74
2022/06/03 12:35:41;;;;;;;5.50;5.00;;;;;;;;;;5105964;28;20196;-73
2022/06/03 12:38:24;;;;;;;8.03;4.63;;;;;;;;;;5105265;28;20295;-74
2022/06/03 12:40:54;;;;;;;6.47;4.57;;;;;;;;;;5106225;28;20184;-74
2022/06/03 12:43:29;;;;;;;9.70;6.20;;;;;;;;;;5107221;28;20195;-75
2022/06/03 12:46:00;;;;;;;5.30;4.27;;;;;;;;;;5104930;28;20198;-73
2022/06/03 12:48:34;;;;;;;5.43;4.60;;;;;;;;;;5105835;28;20671;-73
2022/06/03 12:51:19;;;;;;;6.47;4.47;;;;;;;;;;5108494;28;20188;-73
2022/06/03 12:53:47;;;;;;;5.60;4.30;;;;;;;;;;5107702;28;20632;-75
2022/06/03 12:56:23;;;;;;;7.80;4.90;;;;;;;;;;5110493;28;20180;-75
2022/06/03 12:58:56;;;;;;;5.53;4.23;;;;;;;;;;5108771;28;20196;-74
2022/06/03 13:01:34;;;;;;;5.47;4.80;;;;;;;;;;5109041;28;20271;-76
2022/06/03 13:04:20;;;;;;;6.83;4.33;;;;;;;;;;5108222;28;20199;-76
2022/06/03 13:07:05;;;;;;;12.27;4.37;;;;;;;;;;5108596;28;20228;-73
2022/06/03 13:09:52;;;;;;;8.80;4.33;;;;;;;;;;5109602;28;20283;-73
2022/06/03 13:12:44;;;;;;;8.97;4.60;;;;;;;;;;5108884;28;20588;-72
2022/06/03 13:15:17;;;;;;;5.40;4.40;;;;;;;;;;5109315;28;20286;-74
2022/06/03 13:18:05;;;;;;;5.57;4.13;;;;;;;;;;5092234;28;20557;-74
2022/06/03 13:20:36;;;;;;;5.20;3.90;;;;;;;;;;5106963;28;20293;-74
2022/06/03 13:23:22;;;;;;;5.67;4.47;;;;;;;;;;5108417;28;20295;-74
2022/06/03 13:25:50;;;;;;;5.10;4.57;;;;;;;;;;5109278;28;20201;-75
2022/06/03 13:28:18;;;;;;;7.50;4.53;;;;;;;;;;5108508;28;20227;-76
2022/06/03 13:31:02;;;;;;;10.07;4.67;;;;;;;;;;5091237;28;20220;-73
2022/06/03 13:33:31;;;;;;;6.20;4.23;;;;;;;;;;5106450;28;20200;-74
2022/06/03 13:36:00;;;;;;;5.07;4.13;;;;;;;;;;5091323;28;20204;-75
2022/06/03 13:38:39;;;;;;;9.37;4.80;;;;;;;;;;5090062;28;20200;-74
2022/06/03 13:44:16;;;;;;;8.27;4.13;;;;;;;;;;5107350;28;20625;-75
2022/06/03 13:46:47;;;;;;;8.07;4.43;;;;;;;;;;5122502;27;20224;-73
2022/06/03 13:49:21;;;;;;;7.30;4.20;;;;;;;;;;5109270;28;20270;-75
2022/06/03 13:51:50;;;;;;;6.23;4.27;;;;;;;;;;5107313;28;20196;-74
2022/06/03 13:54:21;;;;;;;7.40;4.47;;;;;;;;;;5108255;28;20188;-73
2022/06/03 13:56:57;;;;;;;9.57;4.53;;;;;;;;;;5109682;28;20187;-74
2022/06/03 13:59:25;;;;;;;5.93;4.63;;;;;;;;;;5107055;28;20202;-73
2022/06/03 14:01:54;;;;;;;6.67;4.53;;;;;;;;;;5109015;28;20721;-74
2022/06/03 14:04:30;;;;;;;5.47;4.77;;;;;;;;;;5108305;28;20188;-74
2022/06/03 14:07:01;;;;;;;5.70;4.63;;;;;;;;;;5106892;28;20231;-74
2022/06/03 14:09:51;;;;;;;6.00;5.30;;;;;;;;;;5107455;28;20286;-73
2022/06/03 14:12:33;;;;;;;8.17;4.93;;;;;;;;;;5101955;28;20213;-74
2022/06/03 14:15:06;;;;;;;4.90;4.30;;;;;;;;;;5107943;28;20191;-75
2022/06/03 14:17:50;;;;;;;7.77;4.70;;;;;;;;;;5107854;28;20218;-75
2022/06/03 14:20:23;;;;;;;7.90;4.50;;;;;;;;;;5088819;28;20198;-73
2022/06/03 14:23:08;;;;;;;9.30;4.20;;;;;;;;;;5108467;28;20226;-73
2022/06/03 14:25:39;;;;;;;9.23;4.47;;;;;;;;;;5107302;27;20278;-73
2022/06/03 14:28:09;;;;;;;5.67;3.93;;;;;;;;;;5100330;28;20738;-73
2022/06/03 14:30:39;;;;;;;5.63;3.70;;;;;;;;;;5119839;27;20203;-75
2022/06/03 14:33:33;;;;;;;4.53;3.50;;;;;;;;;;5087970;28;20188;-74
2022/06/03 14:36:34;;;;;;;5.07;3.70;;;;;;;;;;5085527;28;20267;-76
2022/06/03 14:39:21;;;;;;;5.87;3.60;;;;;;;;;;5089312;28;20775;-75
2022/06/03 14:41:53;;;;;;;5.60;4.00;;;;;;;;;;5086721;28;20203;-74
2022/06/03 14:44:21;;;;;;;5.17;3.40;;;;;;;;;;5095766;28;20641;-77
2022/06/03 14:46:52;;;;;;;6.43;3.30;;;;;;;;;;5106878;28;20635;-74
2022/06/03 14:49:51;;;;;;;6.27;3.87;;;;;;;;;;5108081;28;20295;-75
2022/06/03 14:52:18;;;;;;;8.97;3.70;;;;;;;;;;5084304;28;20196;-75
2022/06/03 14:54:50;;;;;;;7.37;3.07;;;;;;;;;;5105510;28;20622;-75
2022/06/03 14:57:39;;;;;;;6.73;3.67;;;;;;;;;;5108012;28;20194;-75
2022/06/03 15:00:09;;;;;;;4.70;3.70;;;;;;;;;;5106506;27;20180;-73
2022/06/03 15:02:50;;;;;;;5.37;3.90;;;;;;;;;;5108132;28;20184;-73
2022/06/03 15:05:23;;;;;;;5.63;3.60;;;;;;;;;;5107377;28;20241;-74
2022/06/03 15:07:54;;;;;;;8.03;3.93;;;;;;;;;;5106460;28;20218;-74
2022/06/03 15:10:23;;;;;;;7.53;4.17;;;;;;;;;;5107759;28;20847;-73
2022/06/03 15:12:56;;;;;;;5.33;4.17;;;;;;;;;;5105581;28;20180;-75
2022/06/03 15:15:25;;;;;;;5.67;3.80;;;;;;;;;;5108009;28;20632;-73
2022/06/03 15:17:52;;;;;;;4.13;3.70;;;;;;;;;;5105647;28;20181;-74
2022/06/03 15:20:21;;;;;;;6.00;3.77;;;;;;;;;;5107091;28;20231;-73
2022/06/03 15:22:55;;;;;;;4.80;4.07;;;;;;;;;;5140598;27;20751;-74
2022/06/03 15:25:22;;;;;;;5.87;4.60;;;;;;;;;;5104680;28;20192;-73
2022/06/03 15:27:48;;;;;;;6.13;4.40;;;;;;;;;;5106442;28;20789;-74
2022/06/03 15:30:34;;;;;;;5.87;3.83;;;;;;;;;;5106528;28;20183;-72
2022/06/03 15:33:10;;;;;;;6.53;4.37;;;;;;;;;;5106333;28;20693;-72
2022/06/03 15:35:37;;;;;;;7.57;3.87;;;;;;;;;;5104629;28;20248;-73
2022/06/03 15:38:06;;;;;;;5.97;4.57;;;;;;;;;;5085279;28;20199;-74
2022/06/03 15:40:34;;;;;;;4.43;4.03;;;;;;;;;;5085649;28;20189;-73
2022/06/03 15:43:03;;;;;;;7.03;4.53;;;;;;;;;;5085785;28;20184;-72
2022/06/03 15:45:36;;;;;;;5.63;4.03;;;;;;;;;;5085721;28;20746;-74
2022/06/03 15:48:14;;;;;;;6.57;4.07;;;;;;;;;;5085902;28;20307;-71
2022/06/03 15:50:43;;;;;;;6.03;4.90;;;;;;;;;;5086186;28;20207;-74
2022/06/03 15:53:20;;;;;;;6.97;4.30;;;;;;;;;;5087100;28;20185;-75
2022/06/03 15:55:53;;;;;;;7.20;5.10;;;;;;;;;;5085713;28;20654;-73
2022/06/03 15:58:38;;;;;;;6.17;4.43;;;;;;;;;;5087234;28;20610;-73
2022/06/03 16:01:13;;;;;;;7.83;4.50;;;;;;;;;;5086317;28;20185;-74
2022/06/03 16:04:09;;;;;;;7.10;5.13;;;;;;;;;;5086614;28;20212;-78